George, Washington
Current Conditions -  °F | °C
As of 2:53 AM on Wednesday 26 Nov 2014 (Local Time) from KEPH Reporting Station
Overcast Overcast  
Wind Chill: 33°   Ceiling: 900
Heat Index: 37°   Visibility: 10mi
Dew Point: 36°   Wind: 5mph
Humidity: 96%   Direction: 10°N
Pressure: 30.18"   Gusts: NA
Location:  47.08°N, 119.86°W
Report Text: KEPH 261053Z AUTO 01004KT 10SM OVC009 03/02 A3018 RMK AO2 SLP230 T00280022
Loading
Personal Weather Stations






























Interactive Weather Map New forecast layout! Learn more

10-Day Weather Forecast

Advertisements
Track Severe Weather on mobile